Latest Weather Observations for Borroloola

IDD60801

Issued at 6:11 pm CST Wednesday 24 April 2019 (issued every 10 minutes, with the page automatically refreshed every 10 minutes)

About weather observations | Map of weather stations | Latest weather observations for NT | Other Formats
Station Details ID: 014723 Name: BORROLOOLA AIRPORT Lat: -16.08 Lon: 136.30 Height: 16.1 m
Data from the previous 72 hours. | See also: Recent months at Borroloola
Date/Time
CST
Temp
°C
App
Temp
°C
Dew
Point
°C
Rel
Hum
%
Delta-T
°C
Wind Press
QNH
hPa
Press
MSL
hPa
Rain since
9am
mm
Dir  Spd
km/h
Gust
km/h
Spd
kts
Gust
kts
24/06:00pm 30.6 30.9 18.0 47 8.1 NNE 13 24 7 13 1010.9 1010.8 0.0
24/05:30pm 31.5 32.0 17.4 43 9.0 NE 11 17 6 9 1010.7 1010.6 0.0
24/05:00pm 33.5 33.2 15.5 34 11.2 ESE 11 19 6 10 1010.3 1010.2 0.0
24/04:30pm 33.7 33.3 16.1 34 11.1 SE 13 19 7 10 1010.2 1010.1 0.0
24/04:00pm 34.3 34.1 16.6 34 11.3 SE 13 19 7 10 1010.1 1010.0 0.0
24/03:30pm 34.7 35.5 17.4 35 11.1 SE 9 19 5 10 1010.2 1010.1 0.0
24/03:00pm 34.2 33.5 16.5 34 11.2 SE 15 26 8 14 1010.4 1010.3 0.0
24/02:30pm 34.6 34.3 17.3 35 11.1 SE 15 22 8 12 1010.7 1010.6 0.0
24/02:00pm 33.8 32.8 15.7 33 11.3 ESE 15 24 8 13 1011.2 1011.1 0.0
24/01:30pm 34.2 33.0 16.1 34 11.4 SE 17 24 9 13 1011.6 1011.5 0.0
24/01:00pm 34.3 33.7 17.5 36 10.8 SE 17 26 9 14 1012.0 1011.9 0.0
24/12:30pm 33.6 32.2 16.5 36 10.8 ESE 19 30 10 16 1012.6 1012.5 0.0
24/12:00pm 33.6 32.2 16.9 37 10.6 ESE 20 32 11 17 1013.1 1013.0 0.0
24/11:30am 32.7 30.2 16.1 37 10.4 ESE 24 32 13 17 1013.5 1013.4 0.0
24/11:00am 32.5 30.3 16.8 39 9.9 ESE 24 32 13 17 1013.9 1013.8 0.0
24/10:30am 31.7 29.0 15.6 37 10.0 ESE 24 35 13 19 1014.4 1014.3 0.0
24/10:00am 31.0 27.5 15.4 38 9.6 SE 28 37 15 20 1014.5 1014.4 0.0
24/09:30am 30.3 28.6 16.3 42 8.7 SE 20 30 11 16 1014.7 1014.6 0.0
24/09:00am 29.4 27.6 15.9 44 8.3 SE 20 30 11 16 1014.6 1014.5 0.0
24/08:30am 27.9 26.1 15.9 48 7.4 SE 20 26 11 14 1014.2 1014.1 0.0
24/08:00am 25.4 26.6 18.3 65 4.5 SSE 9 13 5 7 1014.0 1013.9 0.0
24/07:30am 22.4 25.5 21.0 92 0.9 S 6 7 3 4 1013.6 1013.5 0.0
24/07:00am 20.8 23.0 19.3 91 0.9 SSW 6 7 3 4 1013.4 1013.3 0.0
24/06:30am 20.5 22.4 18.6 89 1.2 SW 6 7 3 4 1013.2 1013.1 0.0
24/06:00am 20.9 23.1 19.6 92 0.8 SSW 7 9 4 5 1012.9 1012.8 0.0
24/05:30am 21.0 22.9 19.8 93 0.8 SW 9 11 5 6 1012.7 1012.6 0.0
24/05:00am 21.1 24.2 19.6 91 1.0 SW 2 7 1 4 1012.3 1012.2 0.0
24/04:30am 21.4 23.7 19.9 91 1.0 SW 7 9 4 5 1012.2 1012.1 0.0
24/04:00am 21.5 23.9 19.6 89 1.2 SSW 6 9 3 5 1012.1 1012.0 0.0
24/03:30am 22.0 24.7 20.6 92 0.9 SSW 7 9 4 5 1012.2 1012.1 0.0
24/03:00am 22.3 25.3 21.3 94 0.7 S 7 11 4 6 1012.3 1012.2 0.0
24/02:30am 22.2 23.8 21.4 95 0.5 SSE 15 24 8 13 1012.2 1012.1 0.0
24/02:00am 21.3 23.7 19.6 90 1.1 SW 6 7 3 4 1011.9 1011.8 0.0
24/01:30am 21.5 24.9 19.4 88 1.3 CALM 0 0 0 0 1012.3 1012.2 0.0
24/01:00am 21.8 25.4 19.7 88 1.3 CALM 0 2 0 1 1012.3 1012.2 0.0
24/12:30am 21.9 25.4 19.5 86 1.5 CALM 0 0 0 0 1012.6 1012.5 0.0
24/12:00am 22.2 25.6 19.4 84 1.8 CALM 0 0 0 0 1012.9 1012.8 0.0
 
Date/Time
CST
Temp
°C
App
Temp
°C
Dew
Point
°C
Rel
Hum
%
Delta-T
°C
Wind Press
QNH
hPa
Press
MSL
hPa
Rain since
9am
mm
Dir  Spd
km/h
Gust
km/h
Spd
kts
Gust
kts
23/11:30pm 22.5 26.1 19.7 84 1.8 CALM 0 0 0 0 1013.2 1013.1 0.0
23/11:00pm 23.1 26.5 20.2 84 1.9 SW 2 6 1 3 1013.4 1013.3 0.0
23/10:30pm 23.5 26.4 21.0 86 1.6 SW 7 9 4 5 1013.6 1013.5 0.0
23/10:00pm 23.6 27.6 20.5 83 2.0 CALM 0 0 0 0 1013.7 1013.6 0.0
23/09:30pm 24.3 28.4 20.8 81 2.3 CALM 0 0 0 0 1013.6 1013.5 0.0
23/09:00pm 25.0 29.2 20.9 78 2.7 CALM 0 0 0 0 1013.5 1013.4 0.0
23/08:30pm 25.7 28.8 21.4 77 2.9 N 7 9 4 5 1013.3 1013.2 0.0
23/08:00pm 26.4 29.7 21.4 74 3.3 NNE 6 11 3 6 1012.9 1012.8 0.0
23/07:30pm 27.0 30.1 21.5 72 3.7 NNE 7 11 4 6 1012.4 1012.3 0.0
23/07:00pm 27.0 29.8 20.8 69 4.1 NNE 7 11 4 6 1012.0 1011.9 0.0
23/06:30pm 27.5 30.0 20.3 65 4.7 NNE 7 11 4 6 1011.7 1011.6 0.0
23/06:00pm 28.7 30.3 19.9 59 5.8 NE 11 19 6 10 1011.6 1011.5 0.0
23/05:30pm 29.7 30.0 19.7 55 6.6 NE 17 24 9 13 1011.5 1011.4 0.0
23/05:00pm 30.6 30.7 19.9 52 7.0 NE 19 24 10 13 1011.1 1011.0 0.0
23/04:30pm 31.5 30.9 19.8 49 7.7 NE 22 32 12 17 1010.9 1010.8 0.0
23/04:00pm 32.3 31.2 19.5 46 8.4 NE 24 35 13 19 1010.7 1010.6 0.0
23/03:30pm 34.4 33.9 15.8 33 11.7 E 13 20 7 11 1010.5 1010.4 0.0
23/03:00pm 33.2 32.2 15.7 35 11.0 ESE 15 28 8 15 1010.7 1010.6 0.0
23/02:30pm 34.0 33.3 16.4 35 11.2 E 15 20 8 11 1010.9 1010.8 0.0
23/02:00pm 34.3 33.9 16.2 34 11.4 ESE 13 20 7 11 1011.2 1011.1 0.0
23/01:30pm 34.4 33.1 16.7 34 11.3 E 19 32 10 17 1011.5 1011.4 0.0
23/01:00pm 34.1 32.7 16.5 35 11.2 SE 19 30 10 16 1011.8 1011.7 0.0
23/12:30pm 33.2 31.3 15.7 35 10.9 ESE 20 30 11 16 1012.2 1012.1 0.0
23/12:00pm 32.6 30.3 14.7 34 11.0 ESE 20 33 11 18 1012.8 1012.7 0.0
23/11:30am 32.5 29.6 15.1 35 10.8 ESE 24 35 13 19 1013.4 1013.3 0.0
23/11:00am 32.0 29.1 15.1 36 10.4 ESE 24 37 13 20 1013.9 1013.8 0.0
23/10:30am 31.4 27.4 14.1 35 10.5 ESE 28 37 15 20 1014.2 1014.1 0.0
23/10:00am 31.0 27.9 14.6 37 10.0 SE 24 35 13 19 1014.3 1014.2 0.0
23/09:30am 30.3 27.9 14.4 38 9.6 SE 20 32 11 17 1014.2 1014.1 0.0
23/09:00am 29.2 26.2 13.8 39 9.2 SE 22 35 12 19 1014.2 1014.1 0.0
23/08:30am 28.3 26.0 14.2 42 8.5 SE 19 30 10 16 1014.1 1014.0 0.0
23/08:00am 25.4 24.0 14.5 51 6.5 SSE 15 20 8 11 1013.9 1013.8 0.0
23/07:30am 22.4 23.0 16.9 71 3.4 SSE 9 11 5 6 1013.6 1013.5 0.0
23/07:00am 19.8 20.1 14.4 71 3.1 S 6 7 3 4 1013.4 1013.3 0.0
23/06:30am 19.6 19.9 14.6 73 2.9 SSW 6 7 3 4 1013.0 1012.9 0.0
23/06:00am 19.5 19.9 14.7 74 2.8 S 6 9 3 5 1012.6 1012.5 0.0
23/05:30am 19.3 20.3 16.3 83 1.8 SSW 6 7 3 4 1012.3 1012.2 0.0
23/05:00am 19.1 20.4 17.1 88 1.2 SSW 6 6 3 3 1012.2 1012.1 0.0
23/04:30am 19.3 20.6 17.1 87 1.3 SSW 6 7 3 4 1012.1 1012.0 0.0
23/04:00am 19.5 21.9 16.9 85 1.6 CALM 0 0 0 0 1011.9 1011.8 0.0
23/03:30am 19.7 22.1 17.1 85 1.6 CALM 0 0 0 0 1011.8 1011.7 0.0
23/03:00am 20.0 22.6 17.4 85 1.6 CALM 0 0 0 0 1011.8 1011.7 0.0
23/02:30am 20.5 23.2 17.7 84 1.7 CALM 0 0 0 0 1011.9 1011.8 0.0
23/02:00am 21.0 23.8 18.0 83 1.9 CALM 0 0 0 0 1012.1 1012.0 0.0
23/01:30am 21.6 21.8 18.6 83 1.9 SSW 15 19 8 10 1012.5 1012.4 0.0
23/01:00am 19.7 22.1 17.1 85 1.6 CALM 0 0 0 0 1012.4 1012.3 0.0
23/12:30am 19.9 22.3 16.9 83 1.8 CALM 0 0 0 0 1012.6 1012.5 0.0
23/12:00am 20.3 22.8 17.3 83 1.8 CALM 0 0 0 0 1012.6 1012.5 0.0
 
Date/Time
CST
Temp
°C
App
Temp
°C
Dew
Point
°C
Rel
Hum
%
Delta-T
°C
Wind Press
QNH
hPa
Press
MSL
hPa
Rain since
9am
mm
Dir  Spd
km/h
Gust
km/h
Spd
kts
Gust
kts
22/11:30pm 20.5 22.9 17.1 81 2.1 CALM 0 0 0 0 1012.7 1012.6 0.0
22/11:00pm 20.9 23.3 17.1 79 2.3 CALM 0 0 0 0 1012.7 1012.6 0.0
22/10:30pm 21.4 23.8 17.0 76 2.7 CALM 0 0 0 0 1012.7 1012.6 0.0
22/10:00pm 21.9 24.1 16.6 72 3.2 CALM 0 0 0 0 1012.8 1012.7 0.0
22/09:30pm 23.1 25.5 17.1 69 3.7 CALM 0 0 0 0 1012.8 1012.7 0.0
22/09:00pm 24.8 25.7 16.0 58 5.4 N 6 7 3 4 1012.7 1012.6 0.0
22/08:30pm 25.4 26.3 16.0 56 5.7 NNE 6 7 3 4 1012.4 1012.3 0.0
22/08:00pm 25.7 26.4 15.7 54 6.1 NNE 6 7 3 4 1012.1 1012.0 0.0
22/07:30pm 26.3 26.9 15.7 52 6.5 NNE 7 11 4 6 1011.8 1011.7 0.0
22/07:00pm 27.3 27.7 15.3 48 7.3 NNE 7 11 4 6 1011.4 1011.3 0.0
22/06:30pm 28.6 28.3 14.4 41 8.6 NE 9 13 5 7 1011.0 1010.9 0.0
22/06:00pm 29.8 30.0 14.7 39 9.2 NE 7 11 4 6 1010.7 1010.6 0.0
22/05:30pm 31.1 30.4 14.3 36 10.2 NE 11 15 6 8 1010.5 1010.4 0.0
22/05:00pm 31.3 30.2 14.4 35 10.3 NE 13 20 7 11 1010.4 1010.3 0.0
22/04:30pm 31.9 31.4 15.8 38 10.0 NNE 13 17 7 9 1010.2 1010.1 0.0
22/04:00pm 32.5 31.3 15.1 35 10.8 NNE 15 20 8 11 1010.0 1009.9 0.0
22/03:30pm 33.8 32.4 12.2 27 12.9 ESE 11 15 6 8 1009.7 1009.6 0.0
22/03:00pm 33.1 32.0 13.2 30 12.0 ESE 11 19 6 10 1009.8 1009.7 0.0
22/02:30pm 34.0 33.0 13.5 29 12.5 ESE 11 17 6 9 1009.9 1009.8 0.0
22/02:00pm 35.1 34.4 13.3 27 13.3 ESE 9 15 5 8 1010.2 1010.1 0.0
22/01:30pm 33.7 32.2 13.2 29 12.4 ESE 13 17 7 9 1010.6 1010.5 0.0
22/01:00pm 34.5 32.7 12.2 26 13.3 E 13 19 7 10 1010.9 1010.8 0.0
22/12:30pm 33.6 31.9 14.6 31 11.7 SE 17 22 9 12 1011.3 1011.2 0.0
22/12:00pm 33.9 31.9 14.9 32 11.8 SE 19 26 10 14 1011.8 1011.7 0.0
22/11:30am 33.5 31.9 15.0 32 11.5 SE 17 26 9 14 1012.2 1012.1 0.0
22/11:00am 33.1 32.8 16.5 37 10.5 SSE 13 17 7 9 1012.6 1012.5 0.0
22/10:30am 32.3 33.4 18.1 42 9.2 S 9 15 5 8 1012.8 1012.7 0.0
22/10:00am 31.0 30.9 17.0 43 8.9 S 13 19 7 10 1012.9 1012.8 0.0
22/09:30am 30.5 31.8 19.2 51 7.4 S 11 17 6 9 1012.7 1012.6 0.0
22/09:00am 28.2 30.4 20.5 63 5.1 S 9 11 5 6 1012.7 1012.6 0.0
22/08:30am 26.0 29.2 21.2 75 3.2 SSW 6 9 3 5 1012.6 1012.5 0.0
22/08:00am 23.3 27.0 20.8 86 1.6 WSW 2 6 1 3 1012.3 1012.2 0.0
22/07:30am 21.2 25.2 20.5 96 0.5 CALM 0 0 0 0 1012.3 1012.2 0.0
22/07:00am 19.1 21.9 17.9 93 0.7 CALM 0 0 0 0 1012.1 1012.0 0.0
22/06:30am 18.5 21.0 17.2 92 0.8 CALM 0 0 0 0 1011.8 1011.7 0.0
22/06:00am 18.6 19.9 17.1 91 0.9 SE 6 11 3 6 1011.5 1011.4 0.0
22/05:30am 18.2 19.0 16.4 89 1.1 SSW 7 9 4 5 1011.4 1011.3 0.0
22/05:00am 18.5 20.7 16.5 88 1.2 CALM 0 0 0 0 1010.9 1010.8 0.0
22/04:30am 18.7 21.1 16.9 89 1.1 CALM 0 0 0 0 1010.9 1010.8 0.0
22/04:00am 18.8 21.0 16.6 87 1.3 CALM 0 0 0 0 1010.9 1010.8 0.0
22/03:30am 19.1 21.5 17.1 88 1.2 CALM 0 0 0 0 1011.0 1010.9 0.0
22/03:00am 19.2 21.5 16.8 86 1.5 CALM 0 0 0 0 1011.0 1010.9 0.0
22/02:30am 19.3 21.7 16.9 86 1.5 CALM 0 0 0 0 1010.9 1010.8 0.0
22/02:00am 19.6 22.1 17.2 86 1.5 CALM 0 0 0 0 1011.1 1011.0 0.0
22/01:30am 19.8 22.2 17.0 84 1.7 CALM 0 0 0 0 1011.4 1011.3 0.0
22/01:00am 20.0 21.3 17.2 84 1.7 SSW 6 6 3 3 1011.8 1011.7 0.0
22/12:30am 20.2 22.6 17.0 82 1.9 CALM 0 0 0 0 1012.1 1012.0 0.0
22/12:00am 20.3 21.4 17.1 82 2.0 SSW 7 9 4 5 1012.3 1012.2 0.0
 
Date/Time
CST
Temp
°C
App
Temp
°C
Dew
Point
°C
Rel
Hum
%
Delta-T
°C
Wind Press
QNH
hPa
Press
MSL
hPa
Rain since
9am
mm
Dir  Spd
km/h
Gust
km/h
Spd
kts
Gust
kts
21/11:30pm 21.0 23.6 17.6 81 2.1 CALM 0 0 0 0 1012.3 1012.2 0.0
21/11:00pm 21.7 23.0 17.5 77 2.6 NE 7 7 4 4 1012.4 1012.3 0.0
21/10:30pm 21.3 22.3 16.9 76 2.7 NNE 7 9 4 5 1012.6 1012.5 0.0
21/10:00pm 21.7 23.1 17.3 76 2.7 N 6 6 3 3 1012.5 1012.4 0.0
21/09:30pm 22.0 24.5 17.2 74 2.9 CALM 0 0 0 0 1012.6 1012.5 0.0
21/09:00pm 22.7 25.2 17.2 71 3.4 CALM 0 0 0 0 1012.4 1012.3 0.0
21/08:30pm 23.1 25.1 15.9 64 4.4 CALM 0 0 0 0 1012.0 1011.9 0.0
21/08:00pm 23.5 25.8 16.8 66 4.1 CALM 0 4 0 2 1011.6 1011.5 0.0
21/07:30pm 24.8 26.1 17.0 62 4.8 NE 6 7 3 4 1011.3 1011.2 0.0
21/07:00pm 26.3 26.7 14.7 48 7.0 NE 6 7 3 4 1011.1 1011.0 0.0
21/06:30pm 27.6 27.6 14.3 44 8.0 NE 7 9 4 5 1010.7 1010.6 0.0

Other formats

Comma delimited format used in spreadsheet applications
http://www.bom.gov.au/fwo/IDD60801/IDD60801.94152.axf

JavaScript Object Notation format (JSON) in row-major order
http://www.bom.gov.au/fwo/IDD60801/IDD60801.94152.json

Data quality

Most of these data are generated automatically and are frequently updated. Quality checks on data are not normally performed. It is possible for incorrect values to appear. Refer to information at About Latest Weather Observations and please check the disclaimer before using these data.